Time;durP1;ratioP1;P1;durP2;ratioP2;P2;SDS_P1;SDS_P2;PMS_P1;PMS_P2;Temp;Humidity;BMP_temperature;BMP_pressure;BME280_temperature;BME280_humidity;BME280_pressure;Samples;Min_cycle;Max_cycle;Signal;HPM_P1;HPM_P2
2022/05/17 00:00:26;;;;;;;9.75;5.88;;;;;17.30;96635.00;;;;8473017;27;20286;-70
2022/05/17 00:04:30;;;;;;;7.57;5.65;;;;;17.40;96630.00;;;;8461705;27;20332;-69
2022/05/17 00:08:33;;;;;;;15.38;6.70;;;;;17.40;96635.00;;;;8469777;27;20229;-71
2022/05/17 00:12:38;;;;;;;12.70;5.85;;;;;17.40;96632.00;;;;8471619;27;20234;-71
2022/05/17 00:16:42;;;;;;;5.60;4.88;;;;;17.50;96643.00;;;;8465096;27;20253;-71
2022/05/17 00:20:45;;;;;;;10.05;5.07;;;;;17.50;96644.00;;;;8459043;27;20253;-71
2022/05/17 00:24:49;;;;;;;5.00;4.00;;;;;17.50;96638.00;;;;8465119;27;20746;-72
2022/05/17 00:28:53;;;;;;;11.60;4.43;;;;;17.50;96635.00;;;;8464766;27;20328;-71
2022/05/17 00:32:56;;;;;;;6.07;4.38;;;;;17.50;96634.00;;;;8473910;27;20226;-71
2022/05/17 00:37:00;;;;;;;12.05;4.00;;;;;17.50;96642.00;;;;8470582;27;20736;-72
2022/05/17 00:41:03;;;;;;;8.15;4.63;;;;;17.40;96639.00;;;;8467385;27;20225;-71
2022/05/17 00:45:10;;;;;;;11.75;4.97;;;;;17.40;96641.00;;;;8458381;27;20222;-71
2022/05/17 00:49:16;;;;;;;9.45;4.60;;;;;17.30;96638.00;;;;8460013;27;20754;-70
2022/05/17 00:53:23;;;;;;;7.00;4.10;;;;;17.40;96641.00;;;;8475521;27;20217;-71
2022/05/17 00:57:31;;;;;;;10.27;4.30;;;;;17.30;96637.00;;;;8459874;27;20988;-71
2022/05/17 01:01:36;;;;;;;11.10;4.60;;;;;17.30;96643.00;;;;8460587;27;20323;-71
2022/05/17 01:05:45;;;;;;;8.55;5.85;;;;;17.10;96637.00;;;;8462470;27;20230;-71
2022/05/17 01:09:48;;;;;;;10.40;6.80;;;;;16.80;96637.00;;;;8467562;27;20302;-74
2022/05/17 01:18:15;;;;;;;14.02;7.57;;;;;16.50;96629.00;;;;8463001;28;20249;-71
2022/05/17 01:22:19;;;;;;;15.57;8.18;;;;;16.50;96633.00;;;;8472019;27;20246;-71
2022/05/17 01:26:27;;;;;;;13.77;8.27;;;;;16.40;96638.00;;;;8477860;27;20714;-70
2022/05/17 01:30:32;;;;;;;13.95;8.63;;;;;16.40;96638.00;;;;8479330;27;20313;-70
2022/05/17 01:34:36;;;;;;;17.42;8.70;;;;;16.40;96633.00;;;;8478052;27;20289;-70
2022/05/17 01:38:45;;;;;;;14.15;8.52;;;;;16.50;96634.00;;;;8471781;27;20551;-71
2022/05/17 01:42:48;;;;;;;21.02;8.60;;;;;16.50;96643.00;;;;8477330;27;20321;-69
2022/05/17 01:46:52;;;;;;;14.77;9.00;;;;;16.50;96636.00;;;;8461890;27;20296;-70
2022/05/17 01:50:55;;;;;;;12.77;8.63;;;;;16.50;96637.00;;;;8479168;27;20235;-72
2022/05/17 01:54:59;;;;;;;18.60;8.90;;;;;16.50;96633.00;;;;8464880;27;20748;-70
2022/05/17 01:59:03;;;;;;;16.42;8.75;;;;;16.60;96634.00;;;;8466229;27;20306;-71
2022/05/17 02:03:06;;;;;;;18.60;8.73;;;;;16.70;96644.00;;;;8462946;27;20261;-70
2022/05/17 02:07:09;;;;;;;14.60;8.38;;;;;16.70;96636.00;;;;8471519;27;20653;-71
2022/05/17 02:11:14;;;;;;;14.95;9.10;;;;;16.70;96633.00;;;;8463332;27;20231;-71
2022/05/17 02:15:17;;;;;;;16.77;9.07;;;;;16.70;96635.00;;;;8463730;27;21142;-70
2022/05/17 02:19:22;;;;;;;14.85;8.43;;;;;16.80;96631.00;;;;8464684;27;20218;-70
2022/05/17 02:23:26;;;;;;;14.30;8.07;;;;;16.80;96626.00;;;;8474310;27;20224;-70
2022/05/17 02:27:30;;;;;;;13.57;8.07;;;;;16.80;96627.00;;;;8469804;27;20290;-70
2022/05/17 02:31:34;;;;;;;15.45;8.27;;;;;16.80;96627.00;;;;8466782;27;20683;-71
2022/05/17 02:35:38;;;;;;;14.73;8.25;;;;;16.80;96634.00;;;;8467761;27;20248;-71
2022/05/17 02:39:41;;;;;;;12.57;7.70;;;;;16.90;96632.00;;;;8473914;27;20314;-71
2022/05/17 02:43:46;;;;;;;13.55;7.88;;;;;16.90;96636.00;;;;8464127;27;20229;-70
2022/05/17 02:47:49;;;;;;;10.80;7.82;;;;;16.90;96633.00;;;;8471336;27;20731;-70
2022/05/17 02:51:54;;;;;;;14.45;8.38;;;;;17.00;96634.00;;;;8468470;27;20214;-71
2022/05/17 02:55:57;;;;;;;15.68;8.27;;;;;17.00;96638.00;;;;8470525;27;20232;-71
2022/05/17 03:00:02;;;;;;;13.88;8.27;;;;;17.00;96646.00;;;;8463703;27;20232;-71
2022/05/17 03:04:06;;;;;;;13.80;8.00;;;;;17.00;96647.00;;;;8439150;22;20233;-70
2022/05/17 03:08:09;;;;;;;12.45;7.90;;;;;17.00;96646.00;;;;8398056;28;20225;-71
2022/05/17 03:12:13;;;;;;;12.38;7.82;;;;;17.10;96645.00;;;;8400386;28;20223;-70
2022/05/17 03:16:17;;;;;;;12.75;7.72;;;;;17.10;96655.00;;;;8403858;28;20318;-70
2022/05/17 03:20:21;;;;;;;9.98;6.95;;;;;17.20;96654.00;;;;8401285;28;20230;-69
2022/05/17 03:24:25;;;;;;;13.00;7.20;;;;;17.20;96661.00;;;;8400442;28;20310;-69
2022/05/17 03:28:48;;;;;;;14.10;7.47;;;;;17.20;96662.00;;;;8402012;28;20219;-70
2022/05/17 03:32:53;;;;;;;13.43;7.68;;;;;17.20;96657.00;;;;8398786;28;20250;-70
2022/05/17 03:36:56;;;;;;;14.27;8.35;;;;;17.20;96663.00;;;;8410978;28;20230;-71
2022/05/17 03:40:59;;;;;;;17.58;8.15;;;;;17.30;96669.00;;;;8412652;28;20230;-70
2022/05/17 03:45:03;;;;;;;14.57;8.20;;;;;17.30;96666.00;;;;8398247;28;20231;-71
2022/05/17 03:49:07;;;;;;;15.25;8.35;;;;;17.30;96672.00;;;;8410225;28;20245;-70
2022/05/17 03:53:11;;;;;;;16.75;8.98;;;;;17.30;96677.00;;;;8403641;28;20249;-72
2022/05/17 03:57:14;;;;;;;12.65;9.07;;;;;17.30;96674.00;;;;8406107;28;20238;-71
2022/05/17 04:01:19;;;;;;;13.70;8.80;;;;;17.40;96676.00;;;;8409781;28;20223;-71
2022/05/17 04:05:24;;;;;;;15.82;9.25;;;;;17.40;96684.00;;;;8405194;28;20234;-71
2022/05/17 04:09:27;;;;;;;16.40;9.82;;;;;17.40;96687.00;;;;8403368;28;20237;-72
2022/05/17 04:13:32;;;;;;;12.65;9.10;;;;;17.40;96685.00;;;;8409048;28;20225;-72
2022/05/17 04:17:35;;;;;;;14.82;9.88;;;;;17.50;96694.00;;;;8396932;28;20227;-70
2022/05/17 04:21:40;;;;;;;14.43;9.18;;;;;17.60;96690.00;;;;8395371;28;20935;-69
2022/05/17 04:25:43;;;;;;;15.65;9.23;;;;;17.60;96692.00;;;;8392815;28;20334;-69
2022/05/17 04:29:46;;;;;;;18.17;10.48;;;;;17.60;96701.00;;;;8401234;28;20231;-70
2022/05/17 04:33:50;;;;;;;19.48;10.48;;;;;17.60;96715.00;;;;8404501;28;20309;-70
2022/05/17 04:37:54;;;;;;;21.38;11.68;;;;;17.60;96720.00;;;;8408844;28;20224;-70
2022/05/17 04:41:58;;;;;;;21.67;11.73;;;;;17.70;96712.00;;;;8402123;28;20224;-71
2022/05/17 04:46:01;;;;;;;19.48;10.80;;;;;17.70;96723.00;;;;8401597;28;20231;-70
2022/05/17 04:50:05;;;;;;;22.25;11.85;;;;;17.70;96719.00;;;;8403188;28;20230;-71
2022/05/17 04:54:10;;;;;;;17.10;11.60;;;;;17.70;96721.00;;;;8402919;28;20821;-72
2022/05/17 04:58:13;;;;;;;20.55;11.85;;;;;17.70;96718.00;;;;8396367;28;20237;-69
2022/05/17 05:02:16;;;;;;;19.05;11.98;;;;;17.70;96727.00;;;;8399390;28;20672;-71
2022/05/17 05:06:20;;;;;;;20.58;12.63;;;;;17.70;96736.00;;;;8402449;28;20332;-70
2022/05/17 05:10:26;;;;;;;19.48;12.90;;;;;17.70;96746.00;;;;8394769;28;20227;-70
2022/05/17 05:14:29;;;;;;;21.48;12.05;;;;;17.60;96742.00;;;;8403504;28;20325;-71
2022/05/17 05:18:32;;;;;;;19.65;12.93;;;;;17.50;96740.00;;;;8407026;28;20648;-71
2022/05/17 05:22:36;;;;;;;22.20;12.80;;;;;17.60;96741.00;;;;8399498;28;20258;-71
2022/05/17 05:26:46;;;;;;;19.73;12.77;;;;;17.70;96748.00;;;;8404116;28;20224;-71
2022/05/17 05:30:54;;;;;;;21.15;12.45;;;;;18.20;96751.00;;;;8395284;28;20215;-72
2022/05/17 05:34:57;;;;;;;21.60;13.02;;;;;18.40;96758.00;;;;8397050;28;20235;-71
2022/05/17 05:39:00;;;;;;;18.92;11.60;;;;;18.90;96765.00;;;;8407159;28;20220;-72
2022/05/17 05:43:05;;;;;;;15.93;10.13;;;;;19.10;96763.00;;;;8407742;28;20258;-72
2022/05/17 05:47:09;;;;;;;14.65;10.27;;;;;19.10;96767.00;;;;8398105;28;20231;-71
2022/05/17 05:51:13;;;;;;;14.25;9.60;;;;;19.60;96778.00;;;;8393683;28;20241;-72
2022/05/17 05:55:19;;;;;;;19.17;10.50;;;;;20.10;96787.00;;;;8405120;28;20238;-70
2022/05/17 05:59:29;;;;;;;18.17;10.77;;;;;20.50;96787.00;;;;8401510;28;20231;-70
2022/05/17 06:03:32;;;;;;;18.73;10.52;;;;;20.50;96788.00;;;;8399807;28;20318;-70
2022/05/17 06:07:36;;;;;;;14.52;9.25;;;;;20.50;96786.00;;;;8398268;28;20596;-70
2022/05/17 06:11:39;;;;;;;12.07;8.35;;;;;20.70;96776.00;;;;8405567;28;20235;-70
2022/05/17 06:15:44;;;;;;;15.68;8.65;;;;;20.70;96780.00;;;;8407266;28;20223;-71
2022/05/17 06:19:47;;;;;;;15.45;8.73;;;;;20.80;96786.00;;;;8408616;28;20624;-72
2022/05/17 06:23:50;;;;;;;15.68;8.63;;;;;20.80;96786.00;;;;8399115;28;21137;-70
2022/05/17 06:27:55;;;;;;;17.13;8.25;;;;;21.40;96790.00;;;;8399833;28;22036;-70
2022/05/17 06:31:59;;;;;;;11.93;8.50;;;;;21.50;96788.00;;;;8408984;28;20289;-71
2022/05/17 06:36:02;;;;;;;14.48;8.82;;;;;21.00;96791.00;;;;8400123;28;20231;-71
2022/05/17 06:40:09;;;;;;;14.75;8.88;;;;;20.80;96796.00;;;;8410221;28;20873;-71
2022/05/17 06:44:12;;;;;;;12.45;9.45;;;;;20.60;96786.00;;;;8408757;28;20733;-70
2022/05/17 06:48:18;;;;;;;14.02;8.52;;;;;21.20;96793.00;;;;8413637;28;20310;-71
2022/05/17 06:52:23;;;;;;;12.63;8.90;;;;;22.00;96793.00;;;;8407539;28;20376;-70
2022/05/17 06:56:26;;;;;;;12.60;8.57;;;;;22.40;96797.00;;;;8414071;28;20326;-70
2022/05/17 07:00:31;;;;;;;14.68;9.18;;;;;22.70;96808.00;;;;8406553;28;20229;-72
2022/05/17 07:04:37;;;;;;;11.48;8.40;;;;;22.60;96807.00;;;;8405682;28;20243;-71
2022/05/17 07:08:40;;;;;;;15.15;9.43;;;;;22.50;96818.00;;;;8412754;28;20370;-70
2022/05/17 07:17:05;;;;;;;13.20;9.20;;;;;23.90;96808.00;;;;8407316;28;20299;-71
2022/05/17 07:21:11;;;;;;;16.98;9.18;;;;;23.90;96822.00;;;;8392577;28;20223;-71
2022/05/17 07:25:14;;;;;;;13.35;8.80;;;;;23.80;96828.00;;;;8407947;28;20228;-71
2022/05/17 07:29:17;;;;;;;13.75;9.05;;;;;24.00;96834.00;;;;8404890;28;20223;-70
2022/05/17 07:33:20;;;;;;;15.75;10.13;;;;;24.20;96826.00;;;;8399899;28;20223;-71
2022/05/17 07:37:25;;;;;;;17.08;9.95;;;;;24.20;96819.00;;;;8402991;28;20355;-71
2022/05/17 07:41:28;;;;;;;13.77;9.68;;;;;24.30;96829.00;;;;8409030;28;20310;-72
2022/05/17 07:45:32;;;;;;;14.10;9.02;;;;;24.60;96833.00;;;;8407797;28;20310;-72
2022/05/17 07:49:38;;;;;;;13.98;10.10;;;;;24.90;96828.00;;;;8408736;28;20251;-72
2022/05/17 07:53:43;;;;;;;12.20;8.45;;;;;25.70;96834.00;;;;8408735;28;20240;-69
2022/05/17 07:57:46;;;;;;;11.43;8.25;;;;;25.30;96838.00;;;;8410671;28;20715;-71
2022/05/17 08:01:49;;;;;;;13.55;8.32;;;;;25.50;96837.00;;;;8405122;28;20327;-74
2022/05/17 08:05:53;;;;;;;13.07;7.60;;;;;26.20;96838.00;;;;8394394;28;20727;-71
2022/05/17 08:09:57;;;;;;;11.30;8.20;;;;;26.40;96835.00;;;;8411466;28;20322;-74
2022/05/17 08:14:01;;;;;;;12.40;7.35;;;;;26.20;96824.00;;;;8395533;28;20231;-71
2022/05/17 08:18:20;;;;;;;10.30;7.63;;;;;26.40;96833.00;;;;8400526;28;20214;-74
2022/05/17 08:22:23;;;;;;;9.27;8.25;;;;;26.70;96833.00;;;;8402807;28;20223;-72
2022/05/17 08:30:50;;;;;;;12.30;7.78;;;;;25.50;96824.00;;;;8410328;28;20678;-72
2022/05/17 08:34:53;;;;;;;16.00;8.98;;;;;25.90;96841.00;;;;8406742;28;20934;-72
2022/05/17 08:38:57;;;;;;;12.30;8.10;;;;;26.40;96840.00;;;;8411523;28;20769;-73
2022/05/17 08:43:27;;;;;;;13.20;7.70;;;;;26.90;96841.00;;;;8408998;28;20227;-70
2022/05/17 08:47:38;;;;;;;9.27;7.25;;;;;26.50;96833.00;;;;8400564;28;20231;-72
2022/05/17 08:52:07;;;;;;;11.73;7.18;;;;;27.00;96841.00;;;;8385899;28;20238;-73
2022/05/17 08:56:12;;;;;;;13.48;8.05;;;;;26.60;96850.00;;;;8396561;28;20314;-72
2022/05/17 09:00:19;;;;;;;15.95;7.65;;;;;26.00;96853.00;;;;8402384;28;20604;-75
2022/05/17 09:04:51;;;;;;;12.80;7.40;;;;;26.00;96861.00;;;;8402457;28;20232;-71
2022/05/17 09:09:05;;;;;;;11.23;6.68;;;;;26.00;96849.00;;;;8399490;28;20241;-72
2022/05/17 09:13:13;;;;;;;11.40;7.50;;;;;25.80;96838.00;;;;8412329;28;20227;-70
2022/05/17 09:17:22;;;;;;;12.75;7.90;;;;;26.20;96840.00;;;;8397245;28;21885;-71
2022/05/17 09:21:29;;;;;;;11.52;7.25;;;;;26.40;96837.00;;;;8401086;28;20647;-75
2022/05/17 09:25:47;;;;;;;11.68;7.82;;;;;25.80;96839.00;;;;8406056;28;20672;-72
2022/05/17 09:29:54;;;;;;;14.30;8.60;;;;;25.90;96843.00;;;;8404966;28;20587;-71
2022/05/17 09:34:02;;;;;;;13.05;7.82;;;;;25.30;96840.00;;;;8404813;28;20231;-74
2022/05/17 09:38:06;;;;;;;11.40;7.72;;;;;25.30;96841.00;;;;8406032;28;20234;-75
2022/05/17 09:42:21;;;;;;;11.40;7.85;;;;;26.60;96848.00;;;;8405227;28;20226;-73
2022/05/17 09:46:32;;;;;;;9.32;7.78;;;;;26.70;96852.00;;;;8412655;28;20227;-75
2022/05/17 09:55:21;;;;;;;9.25;6.55;;;;;26.90;96834.00;;;;8402027;28;20588;-76
2022/05/17 09:59:26;;;;;;;11.80;6.53;;;;;26.90;96839.00;;;;8406156;28;20240;-73
2022/05/17 10:03:35;;;;;;;12.98;6.93;;;;;26.50;96840.00;;;;8404723;28;20243;-73
2022/05/17 10:07:40;;;;;;;8.88;5.60;;;;;27.20;96846.00;;;;8403041;28;20227;-72
2022/05/17 10:11:50;;;;;;;7.32;5.10;;;;;27.40;96844.00;;;;8387116;28;20230;-74
2022/05/17 10:15:57;;;;;;;8.40;5.90;;;;;27.60;96847.00;;;;8410570;28;20345;-71
2022/05/17 10:20:06;;;;;;;5.90;5.30;;;;;28.10;96834.00;;;;8382081;28;20747;-73
2022/05/17 10:24:18;;;;;;;10.45;4.95;;;;;28.10;96831.00;;;;8411144;28;20298;-72
2022/05/17 10:28:33;;;;;;;9.48;6.22;;;;;27.90;96847.00;;;;8397492;28;20231;-70
2022/05/17 10:32:42;;;;;;;7.32;5.57;;;;;27.30;96837.00;;;;8407661;28;20247;-71
2022/05/17 10:36:50;;;;;;;9.20;5.70;;;;;27.30;96833.00;;;;8408346;28;20227;-72
2022/05/17 10:40:56;;;;;;;12.60;6.18;;;;;27.80;96833.00;;;;8410996;28;20314;-72
2022/05/17 10:45:00;;;;;;;11.75;6.05;;;;;28.20;96836.00;;;;8397881;28;20583;-73
2022/05/17 10:49:17;;;;;;;7.38;6.22;;;;;27.60;96833.00;;;;8401936;28;20885;-71
2022/05/17 10:53:39;;;;;;;9.30;6.38;;;;;27.40;96830.00;;;;8407381;28;20260;-73
2022/05/17 10:57:52;;;;;;;7.22;5.93;;;;;27.60;96832.00;;;;8404980;28;20226;-72
2022/05/17 11:02:08;;;;;;;9.15;5.82;;;;;29.00;96829.00;;;;8398790;28;20231;-72
2022/05/17 11:06:23;;;;;;;9.60;5.70;;;;;29.30;96832.00;;;;8400865;28;20601;-73
2022/05/17 11:10:41;;;;;;;8.38;4.95;;;;;30.20;96819.00;;;;8397413;28;20232;-71
2022/05/17 11:14:50;;;;;;;6.50;5.22;;;;;30.60;96825.00;;;;8398310;28;20705;-73
2022/05/17 11:18:58;;;;;;;10.32;4.95;;;;;29.60;96830.00;;;;8395760;28;20697;-74
2022/05/17 11:23:28;;;;;;;7.30;5.88;;;;;28.20;96820.00;;;;8408212;28;20356;-74
2022/05/17 11:27:45;;;;;;;7.13;5.15;;;;;27.50;96823.00;;;;8409287;28;20314;-72
2022/05/17 11:31:55;;;;;;;6.25;5.13;;;;;27.80;96815.00;;;;8410525;28;20276;-71
2022/05/17 11:36:00;;;;;;;7.15;4.88;;;;;28.00;96809.00;;;;8406832;28;20219;-73
2022/05/17 11:40:07;;;;;;;7.72;4.90;;;;;27.60;96807.00;;;;8399973;28;20231;-73
2022/05/17 11:44:27;;;;;;;5.93;4.90;;;;;28.50;96798.00;;;;8395831;28;20245;-73
2022/05/17 11:48:47;;;;;;;7.72;5.75;;;;;28.10;96806.00;;;;8401102;28;20310;-74
2022/05/17 11:52:56;;;;;;;6.43;4.70;;;;;27.80;96808.00;;;;8395347;28;20227;-78
2022/05/17 11:57:00;;;;;;;5.25;3.88;;;;;28.70;96808.00;;;;8372155;28;20231;-71
2022/05/17 12:01:04;;;;;;;5.30;4.40;;;;;28.20;96799.00;;;;8382961;28;20231;-73
2022/05/17 12:05:11;;;;;;;5.30;4.22;;;;;28.80;96793.00;;;;8397901;28;20231;-71
2022/05/17 12:09:31;;;;;;;10.02;4.60;;;;;28.80;96782.00;;;;8397277;28;20228;-71
2022/05/17 12:13:42;;;;;;;6.45;4.25;;;;;28.70;96795.00;;;;8395493;28;20231;-72
2022/05/17 12:17:59;;;;;;;5.80;4.50;;;;;27.90;96795.00;;;;8402897;28;20230;-73
2022/05/17 12:22:12;;;;;;;4.75;4.35;;;;;27.20;96785.00;;;;8395558;28;20676;-74
2022/05/17 12:26:21;;;;;;;6.97;3.88;;;;;26.80;96780.00;;;;8405394;28;21059;-72
2022/05/17 12:34:53;;;;;;;5.15;4.13;;;;;26.10;96788.00;;;;8407237;28;20231;-72
2022/05/17 12:43:29;;;;;;;5.25;3.78;;;;;25.90;96782.00;;;;8402297;28;20231;-71
2022/05/17 12:47:38;;;;;;;7.00;4.07;;;;;25.90;96775.00;;;;8401776;28;20307;-71
2022/05/17 12:51:43;;;;;;;4.30;3.90;;;;;26.00;96776.00;;;;8405450;28;20607;-71
2022/05/17 12:56:01;;;;;;;4.35;3.90;;;;;26.20;96770.00;;;;8410494;28;20327;-72
2022/05/17 13:00:13;;;;;;;4.00;3.67;;;;;26.60;96775.00;;;;8401290;28;20227;-70
2022/05/17 13:04:18;;;;;;;4.85;3.50;;;;;26.90;96771.00;;;;8403915;28;20318;-71
2022/05/17 13:08:23;;;;;;;3.38;3.08;;;;;26.90;96777.00;;;;8405544;28;20226;-71
2022/05/17 13:12:31;;;;;;;3.88;3.20;;;;;27.10;96781.00;;;;8398604;28;20264;-70
2022/05/17 13:16:40;;;;;;;3.17;2.80;;;;;27.50;96766.00;;;;8402712;28;20270;-71
2022/05/17 13:20:48;;;;;;;2.88;2.70;;;;;28.20;96759.00;;;;8394089;28;20320;-74
2022/05/17 13:24:52;;;;;;;4.10;2.75;;;;;28.80;96768.00;;;;8401191;28;20219;-72
2022/05/17 13:29:11;;;;;;;5.20;2.90;;;;;28.80;96759.00;;;;8400868;28;20249;-70
2022/05/17 13:33:33;;;;;;;6.47;3.00;;;;;29.30;96762.00;;;;8401180;28;20212;-76
2022/05/17 13:37:54;;;;;;;3.95;2.85;;;;;29.50;96764.00;;;;8410891;28;20323;-71
2022/05/17 13:41:58;;;;;;;3.05;2.80;;;;;29.20;96770.00;;;;8388147;28;20262;-73
2022/05/17 13:46:16;;;;;;;5.50;3.00;;;;;29.80;96760.00;;;;8403548;28;20333;-73
2022/05/17 13:50:25;;;;;;;2.50;2.30;;;;;30.50;96757.00;;;;8398411;28;20704;-72
2022/05/17 13:54:34;;;;;;;3.10;2.58;;;;;29.90;96746.00;;;;8398375;28;20251;-78
2022/05/17 13:58:37;;;;;;;3.25;2.40;;;;;29.10;96763.00;;;;8396880;28;20302;-77
2022/05/17 14:02:57;;;;;;;6.03;3.30;;;;;29.30;96750.00;;;;8399329;28;20913;-74
2022/05/17 14:07:03;;;;;;;3.22;2.50;;;;;29.90;96743.00;;;;8407086;28;20238;-71
2022/05/17 14:15:50;;;;;;;4.75;2.78;;;;;29.40;96747.00;;;;8409492;28;20657;-71
2022/05/17 14:19:59;;;;;;;4.38;2.50;;;;;28.80;96747.00;;;;8404288;28;20646;-76
2022/05/17 14:24:03;;;;;;;3.63;2.53;;;;;29.40;96740.00;;;;8400397;28;20318;-74
2022/05/17 14:28:06;;;;;;;4.85;2.72;;;;;29.50;96734.00;;;;8407366;28;20227;-74
2022/05/17 14:32:11;;;;;;;3.83;2.60;;;;;29.40;96733.00;;;;8415327;28;20307;-72
2022/05/17 14:36:18;;;;;;;4.10;2.63;;;;;29.40;96729.00;;;;8404418;28;20779;-74
2022/05/17 14:40:21;;;;;;;5.72;2.80;;;;;30.00;96726.00;;;;8402921;28;20257;-72
2022/05/17 14:44:27;;;;;;;4.97;2.40;;;;;30.70;96734.00;;;;8402167;28;20306;-75
2022/05/17 14:48:32;;;;;;;2.97;2.78;;;;;31.10;96728.00;;;;8411314;28;20259;-71
2022/05/17 14:52:40;;;;;;;4.30;2.30;;;;;31.00;96714.00;;;;8408460;28;20409;-71
2022/05/17 14:56:45;;;;;;;4.35;2.60;;;;;31.10;96728.00;;;;8410392;28;20234;-75
2022/05/17 15:00:49;;;;;;;4.68;2.63;;;;;31.00;96716.00;;;;8410595;28;20326;-71
2022/05/17 15:04:52;;;;;;;7.32;2.60;;;;;30.90;96719.00;;;;8409409;28;20235;-70
2022/05/17 15:08:59;;;;;;;3.50;2.55;;;;;30.90;96720.00;;;;8407768;28;20227;-73
2022/05/17 15:13:02;;;;;;;3.33;2.50;;;;;30.80;96716.00;;;;8403526;28;20642;-73
2022/05/17 15:17:05;;;;;;;5.82;2.40;;;;;29.80;96715.00;;;;8404692;28;20726;-71
2022/05/17 15:21:09;;;;;;;3.83;2.72;;;;;29.30;96711.00;;;;8404960;28;20207;-70
2022/05/17 15:25:22;;;;;;;5.15;2.80;;;;;29.90;96713.00;;;;8395488;28;20231;-72
2022/05/17 15:29:26;;;;;;;4.75;2.60;;;;;30.20;96709.00;;;;8404504;28;20698;-78
2022/05/17 15:33:32;;;;;;;3.33;2.40;;;;;29.90;96703.00;;;;8399872;28;20234;-70
2022/05/17 15:37:36;;;;;;;3.95;2.45;;;;;29.40;96701.00;;;;8405358;28;20746;-73
2022/05/17 15:41:40;;;;;;;2.53;2.33;;;;;28.90;96697.00;;;;8392624;28;20236;-70
2022/05/17 15:45:43;;;;;;;11.82;2.83;;;;;29.00;96702.00;;;;8412060;28;20233;-74
2022/05/17 15:54:07;;;;;;;3.45;2.45;;;;;28.80;96705.00;;;;8405058;28;20233;-68
2022/05/17 15:58:13;;;;;;;5.28;2.47;;;;;28.50;96692.00;;;;8410620;28;20319;-73
2022/05/17 16:02:16;;;;;;;3.28;2.47;;;;;28.40;96691.00;;;;8410813;28;20298;-69
2022/05/17 16:06:21;;;;;;;5.47;2.25;;;;;28.60;96696.00;;;;8402530;28;20227;-73
2022/05/17 16:10:27;;;;;;;3.92;2.15;;;;;28.50;96697.00;;;;8410608;28;20302;-69
2022/05/17 16:14:32;;;;;;;2.67;2.10;;;;;28.30;96690.00;;;;8408189;28;20235;-68
2022/05/17 16:18:39;;;;;;;2.40;2.20;;;;;27.90;96692.00;;;;8411199;28;20222;-68
2022/05/17 16:22:45;;;;;;;4.35;2.30;;;;;27.30;96693.00;;;;8407258;28;20219;-70
2022/05/17 16:26:48;;;;;;;4.97;2.38;;;;;26.80;96685.00;;;;8414373;28;20306;-72
2022/05/17 16:30:53;;;;;;;4.20;2.42;;;;;26.40;96688.00;;;;8400124;28;20336;-69
2022/05/17 16:34:57;;;;;;;3.22;2.50;;;;;26.00;96679.00;;;;8408106;28;20708;-70
2022/05/17 16:39:00;;;;;;;3.65;2.50;;;;;25.70;96685.00;;;;8405514;28;20300;-74
2022/05/17 16:43:03;;;;;;;4.15;2.35;;;;;25.50;96684.00;;;;8411222;28;20727;-68
2022/05/17 16:47:08;;;;;;;3.20;2.50;;;;;25.40;96679.00;;;;8402683;28;20280;-70
2022/05/17 16:51:13;;;;;;;4.05;2.33;;;;;25.50;96685.00;;;;8400971;28;20239;-69
2022/05/17 16:55:32;;;;;;;4.43;2.17;;;;;25.80;96680.00;;;;8405567;28;20239;-70
2022/05/17 16:59:40;;;;;;;5.93;2.88;;;;;26.40;96684.00;;;;8404682;28;20223;-69
2022/05/17 17:03:45;;;;;;;3.55;2.30;;;;;27.00;96690.00;;;;8408435;28;20637;-70
2022/05/17 17:07:48;;;;;;;2.45;2.20;;;;;27.00;96695.00;;;;8405628;28;20888;-68
2022/05/17 17:11:52;;;;;;;3.03;2.30;;;;;27.10;96697.00;;;;8401353;28;20937;-71
2022/05/17 17:15:55;;;;;;;3.92;2.45;;;;;27.20;96694.00;;;;8409206;28;20259;-72
2022/05/17 17:20:00;;;;;;;3.78;2.53;;;;;27.40;96698.00;;;;8406626;28;20330;-71
2022/05/17 17:24:03;;;;;;;4.97;2.33;;;;;27.70;96699.00;;;;8407394;28;20261;-71
2022/05/17 17:28:08;;;;;;;5.35;2.40;;;;;27.70;96699.00;;;;8405384;28;20220;-68
2022/05/17 17:40:55;;;;;;;2.65;2.42;;;;;27.50;96704.00;;;;8399740;28;20302;-69
2022/05/17 17:44:59;;;;;;;6.30;2.45;;;;;27.70;96706.00;;;;8399293;28;20234;-71
2022/05/17 17:49:02;;;;;;;4.13;2.50;;;;;27.40;96709.00;;;;8401019;28;21041;-70
2022/05/17 17:53:07;;;;;;;4.50;2.35;;;;;27.00;96714.00;;;;8395860;28;20226;-68
2022/05/17 17:57:10;;;;;;;3.33;2.13;;;;;26.40;96712.00;;;;8404670;28;21005;-66
2022/05/17 18:01:15;;;;;;;2.53;2.40;;;;;25.90;96719.00;;;;8397196;28;20595;-69
2022/05/17 18:05:18;;;;;;;2.60;2.40;;;;;25.60;96717.00;;;;8385285;28;20231;-70
2022/05/17 18:09:24;;;;;;;7.75;2.90;;;;;25.20;96726.00;;;;8377224;28;20286;-70
2022/05/17 18:13:32;;;;;;;5.07;2.70;;;;;24.90;96725.00;;;;8377453;28;20529;-68
2022/05/17 18:17:39;;;;;;;6.60;2.50;;;;;24.70;96728.00;;;;8368178;28;20235;-67
2022/05/17 18:21:42;;;;;;;5.85;2.47;;;;;24.40;96728.00;;;;8367201;28;20319;-69
2022/05/17 18:25:48;;;;;;;4.15;2.80;;;;;24.10;96736.00;;;;8371797;28;20234;-71
2022/05/17 18:29:52;;;;;;;4.43;2.45;;;;;23.80;96734.00;;;;8366749;28;20535;-70
2022/05/17 18:33:55;;;;;;;4.45;2.80;;;;;23.60;96744.00;;;;8368125;28;20882;-69
2022/05/17 18:37:59;;;;;;;5.28;2.90;;;;;23.30;96745.00;;;;8367826;28;20257;-70
2022/05/17 18:42:04;;;;;;;9.88;2.92;;;;;23.00;96744.00;;;;8370603;28;20845;-71
2022/05/17 18:46:08;;;;;;;3.50;2.78;;;;;22.60;96751.00;;;;8372673;28;20928;-69
2022/05/17 18:50:14;;;;;;;3.47;2.63;;;;;22.30;96759.00;;;;8369055;28;20781;-67
2022/05/17 18:54:17;;;;;;;5.32;3.20;;;;;21.90;96761.00;;;;8377669;28;20270;-69
2022/05/17 18:58:23;;;;;;;5.65;3.22;;;;;21.50;96761.00;;;;8375325;28;20236;-72
2022/05/17 19:02:28;;;;;;;6.32;3.30;;;;;21.20;96769.00;;;;8378622;28;21017;-70
2022/05/17 19:06:32;;;;;;;6.57;3.03;;;;;20.90;96769.00;;;;8377316;28;20245;-72
2022/05/17 19:14:58;;;;;;;6.25;3.30;;;;;20.30;96770.00;;;;8408427;28;20330;-72
2022/05/17 19:19:05;;;;;;;3.20;2.90;;;;;20.10;96779.00;;;;8407383;28;20232;-71
2022/05/17 19:23:10;;;;;;;4.30;3.05;;;;;20.00;96777.00;;;;8400975;28;20250;-73
2022/05/17 19:27:20;;;;;;;4.35;3.33;;;;;19.90;96778.00;;;;8409985;28;20227;-69
2022/05/17 19:31:28;;;;;;;3.78;3.03;;;;;19.90;96775.00;;;;8402227;28;20944;-74
2022/05/17 19:35:36;;;;;;;7.03;3.30;;;;;19.80;96783.00;;;;8398254;28;20219;-70
2022/05/17 19:39:40;;;;;;;6.30;2.97;;;;;19.80;96781.00;;;;8403614;28;20266;-72
2022/05/17 19:43:43;;;;;;;7.88;2.60;;;;;19.90;96784.00;;;;8402500;28;20239;-70
2022/05/17 19:47:52;;;;;;;3.60;2.92;;;;;19.80;96792.00;;;;8406459;28;20917;-73
2022/05/17 19:51:56;;;;;;;5.88;2.90;;;;;19.60;96797.00;;;;8405677;28;20227;-70
2022/05/17 19:55:59;;;;;;;3.92;2.90;;;;;19.30;96797.00;;;;8402896;28;20227;-75
2022/05/17 20:00:03;;;;;;;8.48;3.50;;;;;19.00;96794.00;;;;8401870;28;20248;-69
2022/05/17 20:04:07;;;;;;;4.95;3.08;;;;;18.70;96796.00;;;;8399832;28;20234;-68
2022/05/17 20:08:11;;;;;;;5.90;3.42;;;;;18.80;96803.00;;;;8409325;28;20656;-71
2022/05/17 20:12:15;;;;;;;5.75;2.97;;;;;19.10;96809.00;;;;8404177;28;20231;-72
2022/05/17 20:16:19;;;;;;;5.10;2.83;;;;;19.20;96811.00;;;;8405725;28;21003;-75
2022/05/17 20:20:27;;;;;;;5.43;3.05;;;;;19.30;96811.00;;;;8404328;28;20220;-69
2022/05/17 20:24:31;;;;;;;6.10;3.13;;;;;19.30;96811.00;;;;8404376;28;20246;-69
2022/05/17 20:28:35;;;;;;;5.25;3.28;;;;;19.30;96807.00;;;;8399696;28;20223;-69
2022/05/17 20:32:38;;;;;;;6.35;3.35;;;;;19.20;96816.00;;;;8402791;28;20221;-71
2022/05/17 20:36:43;;;;;;;3.45;3.15;;;;;19.10;96813.00;;;;8396114;28;20227;-69
2022/05/17 20:40:46;;;;;;;8.15;3.72;;;;;19.00;96804.00;;;;8397709;28;20774;-73
2022/05/17 20:44:49;;;;;;;5.50;3.88;;;;;18.90;96815.00;;;;8403153;28;20219;-72
2022/05/17 20:48:52;;;;;;;5.32;4.15;;;;;18.70;96827.00;;;;8400580;28;20225;-74
2022/05/17 20:52:58;;;;;;;7.85;4.15;;;;;18.60;96831.00;;;;8408304;28;20231;-74
2022/05/17 20:57:03;;;;;;;5.13;3.90;;;;;18.40;96832.00;;;;8402331;28;20229;-75
2022/05/17 21:01:06;;;;;;;9.13;5.03;;;;;18.20;96832.00;;;;8395010;28;20228;-69
2022/05/17 21:05:10;;;;;;;9.82;5.03;;;;;18.10;96832.00;;;;8398051;28;20635;-65
2022/05/17 21:09:15;;;;;;;7.47;5.13;;;;;18.00;96835.00;;;;8404941;28;20310;-65
2022/05/17 21:13:18;;;;;;;9.10;4.93;;;;;17.80;96841.00;;;;8406643;28;20234;-67